createdAt,value
2023-05-21T00:00:03.073Z,979.07
2023-05-21T00:01:03.705Z,979.01
2023-05-21T00:03:03.077Z,979.13
2023-05-21T00:04:04.050Z,979.07
2023-05-21T00:05:03.664Z,979.01
2023-05-21T00:06:03.300Z,979.07
2023-05-21T00:07:03.459Z,978.90
2023-05-21T00:08:03.574Z,978.96
2023-05-21T00:09:03.581Z,978.99
2023-05-21T00:10:03.357Z,978.93
2023-05-21T00:12:03.323Z,978.90
2023-05-21T00:13:04.814Z,978.90
2023-05-21T00:15:03.908Z,978.96
2023-05-21T00:16:03.484Z,978.90
2023-05-21T00:17:03.576Z,978.93
2023-05-21T00:18:03.694Z,978.90
2023-05-21T00:19:04.039Z,978.82
2023-05-21T00:20:03.751Z,978.82
2023-05-21T00:21:03.486Z,978.76
2023-05-21T00:22:03.143Z,978.85
2023-05-21T00:23:03.705Z,978.87
2023-05-21T00:24:03.362Z,978.79
2023-05-21T00:25:03.350Z,978.90
2023-05-21T00:26:03.074Z,979.05
2023-05-21T00:27:03.795Z,978.88
2023-05-21T00:29:03.504Z,978.94
2023-05-21T00:30:03.487Z,978.91
2023-05-21T00:31:03.001Z,978.82
2023-05-21T00:32:03.689Z,978.82
2023-05-21T00:33:03.482Z,978.82
2023-05-21T00:34:03.528Z,978.82
2023-05-21T00:36:03.831Z,978.88
2023-05-21T00:38:03.077Z,978.85
2023-05-21T00:39:03.737Z,978.85
2023-05-21T00:40:03.725Z,978.82
2023-05-21T00:41:03.891Z,978.74
2023-05-21T00:43:03.037Z,978.68
2023-05-21T00:44:03.648Z,978.77
2023-05-21T00:45:03.549Z,978.83
2023-05-21T00:46:03.575Z,978.86
2023-05-21T00:48:03.849Z,978.80
2023-05-21T00:49:03.884Z,978.86
2023-05-21T00:51:02.974Z,978.97
2023-05-21T00:52:03.530Z,978.66
2023-05-21T00:53:03.037Z,978.74
2023-05-21T00:54:03.777Z,978.77
2023-05-21T00:55:03.496Z,978.75
2023-05-21T00:56:03.555Z,978.69
2023-05-21T00:57:03.170Z,978.83
2023-05-21T00:58:03.186Z,978.75
2023-05-21T00:59:03.678Z,978.78
2023-05-21T01:00:03.577Z,978.81
2023-05-21T01:01:03.780Z,978.69
2023-05-21T01:02:03.457Z,978.72
2023-05-21T01:03:03.315Z,978.69
2023-05-21T01:04:03.715Z,978.67
2023-05-21T01:05:03.343Z,978.64
2023-05-21T01:06:03.829Z,978.58
2023-05-21T01:07:03.593Z,978.55
2023-05-21T01:08:03.239Z,978.47
2023-05-21T01:10:03.689Z,978.53
2023-05-21T01:12:03.437Z,978.61
2023-05-21T01:14:03.646Z,978.42
2023-05-21T01:16:03.043Z,978.53
2023-05-21T01:17:03.186Z,978.50
2023-05-21T01:18:03.827Z,978.43
2023-05-21T01:19:03.786Z,978.43
2023-05-21T01:20:03.705Z,978.40
2023-05-21T01:21:03.258Z,978.48
2023-05-21T01:22:03.292Z,978.48
2023-05-21T01:23:03.245Z,978.48
2023-05-21T01:24:03.845Z,978.43
2023-05-21T01:25:03.907Z,978.40
2023-05-21T01:26:03.521Z,978.48
2023-05-21T01:27:03.408Z,978.43
2023-05-21T01:28:03.759Z,978.43
2023-05-21T01:30:03.845Z,978.40
2023-05-21T01:32:03.048Z,978.32
2023-05-21T01:33:03.350Z,978.38
2023-05-21T01:34:03.224Z,978.51
2023-05-21T01:35:03.317Z,978.35
2023-05-21T01:36:03.930Z,978.29
2023-05-21T01:37:03.647Z,978.24
2023-05-21T01:38:03.294Z,978.30
2023-05-21T01:39:03.732Z,978.24
2023-05-21T01:40:03.274Z,978.38
2023-05-21T01:41:03.002Z,978.38
2023-05-21T01:42:03.718Z,978.27
2023-05-21T01:43:03.771Z,978.35
2023-05-21T01:44:03.686Z,978.27
2023-05-21T01:45:03.739Z,978.18
2023-05-21T01:46:03.711Z,978.33
2023-05-21T01:47:03.766Z,978.24
2023-05-21T01:48:03.951Z,978.24
2023-05-21T01:49:03.410Z,978.39
2023-05-21T01:50:03.401Z,978.24
2023-05-21T01:51:03.113Z,978.27
2023-05-21T01:52:03.225Z,978.24
2023-05-21T01:53:03.637Z,978.27
2023-05-21T01:54:03.383Z,978.39
2023-05-21T01:55:03.452Z,978.25
2023-05-21T01:56:03.919Z,978.27
2023-05-21T01:57:03.888Z,978.22
2023-05-21T01:58:03.554Z,978.22
2023-05-21T01:59:03.215Z,978.33
2023-05-21T02:00:03.859Z,978.33
2023-05-21T02:02:03.920Z,978.31
2023-05-21T02:04:03.630Z,978.25
2023-05-21T02:05:03.344Z,978.28
2023-05-21T02:06:03.201Z,978.17
2023-05-21T02:07:03.767Z,978.43
2023-05-21T02:08:03.529Z,978.17
2023-05-21T02:09:03.197Z,978.20
2023-05-21T02:10:03.660Z,978.23
2023-05-21T02:11:03.725Z,978.23
2023-05-21T02:12:03.781Z,978.14
2023-05-21T02:13:03.357Z,978.20
2023-05-21T02:15:03.491Z,978.23
2023-05-21T02:16:03.543Z,978.12
2023-05-21T02:18:03.169Z,978.26
2023-05-21T02:19:03.089Z,978.23
2023-05-21T02:20:03.421Z,978.18
2023-05-21T02:22:03.797Z,978.23
2023-05-21T02:23:03.320Z,978.18
2023-05-21T02:24:03.902Z,978.12
2023-05-21T02:26:03.519Z,978.00
2023-05-21T02:27:03.535Z,978.00
2023-05-21T02:28:03.279Z,978.03
2023-05-21T02:29:03.862Z,978.00
2023-05-21T02:30:03.869Z,978.00
2023-05-21T02:31:03.579Z,978.12
2023-05-21T02:33:03.905Z,978.18
2023-05-21T02:35:03.087Z,978.18
2023-05-21T02:36:03.139Z,978.04
2023-05-21T02:37:03.926Z,978.12
2023-05-21T02:39:03.607Z,978.09
2023-05-21T02:41:03.221Z,978.12
2023-05-21T02:42:03.859Z,977.92
2023-05-21T02:44:03.570Z,978.04
2023-05-21T02:46:03.527Z,978.18
2023-05-21T02:47:03.186Z,978.21
2023-05-21T02:48:04.040Z,978.15
2023-05-21T02:50:03.662Z,978.12
2023-05-21T02:51:03.533Z,978.07
2023-05-21T02:52:03.464Z,978.12
2023-05-21T02:54:03.131Z,978.15
2023-05-21T02:55:03.165Z,978.15
2023-05-21T02:56:03.246Z,978.15
2023-05-21T02:57:03.856Z,978.21
2023-05-21T02:59:03.487Z,978.24
2023-05-21T03:00:03.094Z,978.27
2023-05-21T03:01:03.720Z,978.13
2023-05-21T03:02:03.924Z,978.21
2023-05-21T03:03:03.744Z,978.27
2023-05-21T03:04:03.499Z,978.16
2023-05-21T03:05:03.187Z,978.19
2023-05-21T03:06:03.358Z,978.22
2023-05-21T03:07:03.317Z,978.24
2023-05-21T03:08:03.389Z,978.39
2023-05-21T03:09:03.322Z,978.25
2023-05-21T03:10:03.445Z,978.22
2023-05-21T03:11:03.572Z,978.16
2023-05-21T03:12:03.269Z,978.25
2023-05-21T03:13:03.088Z,978.11
2023-05-21T03:14:03.532Z,978.14
2023-05-21T03:15:03.613Z,978.28
2023-05-21T03:16:03.491Z,978.25
2023-05-21T03:17:03.216Z,978.17
2023-05-21T03:18:03.916Z,978.40
2023-05-21T03:20:03.127Z,978.31
2023-05-21T03:21:03.771Z,978.23
2023-05-21T03:22:03.417Z,978.20
2023-05-21T03:23:03.214Z,978.31
2023-05-21T03:24:03.324Z,978.26
2023-05-21T03:25:02.972Z,978.28
2023-05-21T03:26:03.626Z,978.26
2023-05-21T03:28:02.954Z,978.17
2023-05-21T03:29:03.629Z,978.28
2023-05-21T03:30:06.697Z,978.17
2023-05-21T03:31:03.126Z,978.29
2023-05-21T03:32:03.768Z,978.40
2023-05-21T03:33:03.706Z,978.40
2023-05-21T03:34:03.803Z,978.34
2023-05-21T03:35:03.531Z,978.14
2023-05-21T03:36:03.218Z,978.23
2023-05-21T03:37:03.272Z,978.37
2023-05-21T03:38:03.042Z,978.23
2023-05-21T03:39:03.794Z,978.26
2023-05-21T03:40:03.484Z,978.23
2023-05-21T03:41:03.625Z,978.29
2023-05-21T03:42:03.374Z,978.26
2023-05-21T03:43:03.277Z,978.26
2023-05-21T03:44:03.033Z,978.26
2023-05-21T03:45:03.005Z,978.23
2023-05-21T03:46:03.669Z,978.20
2023-05-21T03:47:03.993Z,978.20
2023-05-21T03:49:03.256Z,978.23
2023-05-21T03:50:03.421Z,978.37
2023-05-21T03:51:03.247Z,978.29
2023-05-21T03:52:02.962Z,978.12
2023-05-21T03:53:03.723Z,978.20
2023-05-21T03:54:03.760Z,978.32
2023-05-21T03:55:03.511Z,978.32
2023-05-21T03:57:03.887Z,978.26
2023-05-21T03:58:03.850Z,978.29
2023-05-21T03:59:03.857Z,978.40
2023-05-21T04:00:03.441Z,978.40
2023-05-21T04:01:03.551Z,978.32
2023-05-21T04:02:03.301Z,978.23
2023-05-21T04:03:04.020Z,978.32
2023-05-21T04:04:03.795Z,978.45
2023-05-21T04:05:03.374Z,978.37
2023-05-21T04:06:03.099Z,978.35
2023-05-21T04:07:03.046Z,978.26
2023-05-21T04:08:03.758Z,978.32
2023-05-21T04:10:03.385Z,978.35
2023-05-21T04:11:03.021Z,978.40
2023-05-21T04:12:03.745Z,978.29
2023-05-21T04:13:03.433Z,978.43
2023-05-21T04:14:02.998Z,978.38
2023-05-21T04:15:03.707Z,978.35
2023-05-21T04:16:03.516Z,978.23
2023-05-21T04:17:03.089Z,978.32
2023-05-21T04:18:03.295Z,978.45
2023-05-21T04:19:03.506Z,978.43
2023-05-21T04:20:03.007Z,978.51
2023-05-21T04:21:03.252Z,978.45
2023-05-21T04:22:03.900Z,978.48
2023-05-21T04:23:03.637Z,978.56
2023-05-21T04:25:03.653Z,978.45
2023-05-21T04:26:03.379Z,978.50
2023-05-21T04:27:03.808Z,978.50
2023-05-21T04:29:02.990Z,978.53
2023-05-21T04:30:03.740Z,978.47
2023-05-21T04:32:03.877Z,978.50
2023-05-21T04:33:03.703Z,978.44
2023-05-21T04:34:03.819Z,978.53
2023-05-21T04:35:03.750Z,978.44
2023-05-21T04:36:03.894Z,978.39
2023-05-21T04:38:04.676Z,978.39
2023-05-21T04:39:03.947Z,978.36
2023-05-21T04:40:03.534Z,978.36
2023-05-21T04:41:03.064Z,978.44
2023-05-21T04:42:03.890Z,978.44
2023-05-21T04:43:03.831Z,978.44
2023-05-21T04:44:03.518Z,978.46
2023-05-21T04:45:03.121Z,978.44
2023-05-21T04:46:03.722Z,978.55
2023-05-21T04:47:03.617Z,978.44
2023-05-21T04:48:04.056Z,978.44
2023-05-21T04:49:03.600Z,978.41
2023-05-21T04:51:03.770Z,978.32
2023-05-21T04:52:03.922Z,978.45
2023-05-21T04:53:03.716Z,978.41
2023-05-21T04:54:03.780Z,978.48
2023-05-21T04:55:03.780Z,978.51
2023-05-21T04:56:03.538Z,978.48
2023-05-21T04:57:03.643Z,978.53
2023-05-21T04:58:03.210Z,978.62
2023-05-21T04:59:05.722Z,978.44
2023-05-21T05:00:03.841Z,978.56
2023-05-21T05:02:03.506Z,978.47
2023-05-21T05:03:03.353Z,978.47
2023-05-21T05:04:04.005Z,978.49
2023-05-21T05:05:03.849Z,978.52
2023-05-21T05:06:03.344Z,978.33
2023-05-21T05:07:03.883Z,978.44
2023-05-21T05:09:03.207Z,978.26
2023-05-21T05:10:03.298Z,978.51
2023-05-21T05:11:02.949Z,978.43
2023-05-21T05:12:03.627Z,978.40
2023-05-21T05:13:03.618Z,978.42
2023-05-21T05:14:03.724Z,978.30
2023-05-21T05:15:03.805Z,978.20
2023-05-21T05:16:03.319Z,978.20
2023-05-21T05:17:03.221Z,978.16
2023-05-21T05:18:02.993Z,978.24
2023-05-21T05:19:03.704Z,978.23
2023-05-21T05:21:03.018Z,978.21
2023-05-21T05:22:03.079Z,978.23
2023-05-21T05:23:03.795Z,978.19
2023-05-21T05:25:03.904Z,978.26
2023-05-21T05:26:03.437Z,978.26
2023-05-21T05:27:03.080Z,978.34
2023-05-21T05:28:03.802Z,978.46
2023-05-21T05:30:03.053Z,978.57
2023-05-21T05:31:03.792Z,978.48
2023-05-21T05:33:03.119Z,978.60
2023-05-21T05:34:03.307Z,978.65
2023-05-21T05:35:03.878Z,978.71
2023-05-21T05:36:03.906Z,978.76
2023-05-21T05:38:03.623Z,978.96
2023-05-21T05:39:03.339Z,978.93
2023-05-21T05:40:03.550Z,979.05
2023-05-21T05:41:03.099Z,979.10
2023-05-21T05:42:03.767Z,979.02
2023-05-21T05:43:03.941Z,978.99
2023-05-21T05:44:03.835Z,979.01
2023-05-21T05:46:04.033Z,979.16
2023-05-21T05:48:03.072Z,979.19
2023-05-21T05:49:03.680Z,979.16
2023-05-21T05:50:03.728Z,979.10
2023-05-21T05:51:03.936Z,979.15
2023-05-21T05:52:03.486Z,979.21
2023-05-21T05:53:03.650Z,979.24
2023-05-21T05:54:03.783Z,979.29
2023-05-21T05:55:03.720Z,979.17
2023-05-21T05:56:03.323Z,979.17
2023-05-21T05:57:03.283Z,979.20
2023-05-21T05:58:03.055Z,979.22
2023-05-21T05:59:03.854Z,979.22
2023-05-21T06:01:03.065Z,979.13
2023-05-21T06:02:03.058Z,979.27
2023-05-21T06:03:03.829Z,979.18
2023-05-21T06:05:03.054Z,979.38
2023-05-21T06:06:03.792Z,979.37
2023-05-21T06:08:03.816Z,979.37
2023-05-21T06:09:03.318Z,979.51
2023-05-21T06:10:03.454Z,979.51
2023-05-21T06:11:03.405Z,979.47
2023-05-21T06:12:03.477Z,979.29
2023-05-21T06:13:03.162Z,979.46
2023-05-21T06:14:03.726Z,979.49
2023-05-21T06:15:03.324Z,979.51
2023-05-21T06:16:04.018Z,979.37
2023-05-21T06:18:03.858Z,979.60
2023-05-21T06:19:03.458Z,979.48
2023-05-21T06:20:03.271Z,979.42
2023-05-21T06:21:03.713Z,979.59
2023-05-21T06:22:03.982Z,979.59
2023-05-21T06:23:03.367Z,979.54
2023-05-21T06:24:03.909Z,979.59
2023-05-21T06:26:03.055Z,979.62
2023-05-21T06:27:03.824Z,979.62
2023-05-21T06:28:03.555Z,979.65
2023-05-21T06:29:03.202Z,979.68
2023-05-21T06:30:03.091Z,979.65
2023-05-21T06:31:03.119Z,979.59
2023-05-21T06:32:03.687Z,979.53
2023-05-21T06:34:03.860Z,979.61
2023-05-21T06:35:03.857Z,979.61
2023-05-21T06:36:03.374Z,979.73
2023-05-21T06:37:03.390Z,979.61
2023-05-21T06:38:02.933Z,979.50
2023-05-21T06:39:03.025Z,979.53
2023-05-21T06:40:03.009Z,979.50
2023-05-21T06:41:03.151Z,979.58
2023-05-21T06:42:03.834Z,979.61
2023-05-21T06:44:03.441Z,979.64
2023-05-21T06:45:03.949Z,979.64
2023-05-21T06:46:04.019Z,979.66
2023-05-21T06:47:03.059Z,979.75
2023-05-21T06:48:03.202Z,979.57
2023-05-21T06:49:03.262Z,979.48
2023-05-21T06:50:03.287Z,979.54
2023-05-21T06:51:03.927Z,979.68
2023-05-21T06:53:03.698Z,979.50
2023-05-21T06:54:03.685Z,979.53
2023-05-21T06:55:03.892Z,979.50
2023-05-21T06:56:03.896Z,979.50
2023-05-21T06:57:03.474Z,979.55
2023-05-21T06:58:03.502Z,979.58
2023-05-21T06:59:03.376Z,979.55
2023-05-21T07:00:03.056Z,979.64
2023-05-21T07:01:03.701Z,979.64
2023-05-21T07:02:05.081Z,979.49
2023-05-21T07:04:02.968Z,979.46
2023-05-21T07:05:03.582Z,979.72
2023-05-21T07:07:03.842Z,979.58
2023-05-21T07:09:03.407Z,979.78
2023-05-21T07:10:03.408Z,979.61
2023-05-21T07:11:03.487Z,979.76
2023-05-21T07:12:03.653Z,979.55
2023-05-21T07:13:03.164Z,979.58
2023-05-21T07:14:03.670Z,979.70
2023-05-21T07:15:03.832Z,979.61
2023-05-21T07:16:03.840Z,979.55
2023-05-21T07:17:03.744Z,979.64
2023-05-21T07:18:03.487Z,979.64
2023-05-21T07:19:03.812Z,979.66
2023-05-21T07:20:03.690Z,979.61
2023-05-21T07:21:03.169Z,979.60
2023-05-21T07:22:03.642Z,979.66
2023-05-21T07:23:03.598Z,979.63
2023-05-21T07:24:03.546Z,979.55
2023-05-21T07:25:03.558Z,979.52
2023-05-21T07:26:03.242Z,979.49
2023-05-21T07:27:24.492Z,979.60
2023-05-21T07:28:06.741Z,979.37
2023-05-21T07:29:03.054Z,979.51
2023-05-21T07:30:03.687Z,979.71
2023-05-21T07:31:03.735Z,979.51
2023-05-21T07:32:03.959Z,979.51
2023-05-21T07:33:03.641Z,979.56
2023-05-21T07:34:03.462Z,979.59
2023-05-21T07:35:03.755Z,979.56
2023-05-21T07:36:03.667Z,979.59
2023-05-21T07:37:03.420Z,979.45
2023-05-21T07:38:04.156Z,979.59
2023-05-21T07:39:02.980Z,979.45
2023-05-21T07:40:03.496Z,979.45
2023-05-21T07:42:03.691Z,979.50
2023-05-21T07:43:03.451Z,979.44
2023-05-21T07:44:03.034Z,979.50
2023-05-21T07:45:03.713Z,979.50
2023-05-21T07:47:03.947Z,979.52
2023-05-21T07:49:03.630Z,979.43
2023-05-21T07:50:03.684Z,979.40
2023-05-21T07:51:03.785Z,979.43
2023-05-21T07:52:03.371Z,979.43
2023-05-21T07:53:03.044Z,979.48
2023-05-21T07:54:03.132Z,979.45
2023-05-21T07:55:03.878Z,979.51
2023-05-21T07:57:03.679Z,979.50
2023-05-21T07:58:03.229Z,979.53
2023-05-21T07:59:03.762Z,979.35
2023-05-21T08:01:03.503Z,979.40
2023-05-21T08:02:03.404Z,979.49
2023-05-21T08:03:03.424Z,979.49
2023-05-21T08:04:04.216Z,979.48
2023-05-21T08:06:03.094Z,979.42
2023-05-21T08:07:03.597Z,979.51
2023-05-21T08:08:03.356Z,979.39
2023-05-21T08:09:03.888Z,979.42
2023-05-21T08:11:03.476Z,979.29
2023-05-21T08:12:03.639Z,979.47
2023-05-21T08:13:03.581Z,979.47
2023-05-21T08:14:03.103Z,979.47
2023-05-21T08:15:03.706Z,979.49
2023-05-21T08:16:03.699Z,979.46
2023-05-21T08:17:03.777Z,979.38
2023-05-21T08:18:03.595Z,979.49
2023-05-21T08:19:03.379Z,979.46
2023-05-21T08:20:03.349Z,979.46
2023-05-21T08:21:03.013Z,979.52
2023-05-21T08:22:03.605Z,979.52
2023-05-21T08:24:02.964Z,979.48
2023-05-21T08:25:03.105Z,979.45
2023-05-21T08:26:03.061Z,979.54
2023-05-21T08:27:03.815Z,979.42
2023-05-21T08:28:03.776Z,979.45
2023-05-21T08:29:03.438Z,979.45
2023-05-21T08:30:03.180Z,979.45
2023-05-21T08:31:03.846Z,979.47
2023-05-21T08:32:03.956Z,979.36
2023-05-21T08:34:03.782Z,979.35
2023-05-21T08:36:03.137Z,979.38
2023-05-21T08:37:03.091Z,979.46
2023-05-21T08:38:03.580Z,979.48
2023-05-21T08:40:03.835Z,979.45
2023-05-21T08:42:03.121Z,979.41
2023-05-21T08:43:03.142Z,979.53
2023-05-21T08:44:03.835Z,979.29
2023-05-21T08:46:03.060Z,979.38
2023-05-21T08:47:03.628Z,979.34
2023-05-21T08:48:03.336Z,979.40
2023-05-21T08:49:03.844Z,979.37
2023-05-21T08:51:02.908Z,979.34
2023-05-21T08:52:03.584Z,979.54
2023-05-21T08:53:23.852Z,979.45
2023-05-21T08:55:03.960Z,979.45
2023-05-21T08:56:03.839Z,979.48
2023-05-21T08:57:03.637Z,979.45
2023-05-21T08:58:03.605Z,979.39
2023-05-21T08:59:03.624Z,979.33
2023-05-21T09:00:03.684Z,979.36
2023-05-21T09:01:03.375Z,979.36
2023-05-21T09:03:03.303Z,979.42
2023-05-21T09:04:21.135Z,979.39
2023-05-21T09:05:04.013Z,979.33
2023-05-21T09:06:03.482Z,979.42
2023-05-21T09:07:03.621Z,979.42
2023-05-21T09:08:03.118Z,979.39
2023-05-21T09:09:03.770Z,979.42
2023-05-21T09:11:03.484Z,979.39
2023-05-21T09:12:03.156Z,979.42
2023-05-21T09:13:03.679Z,979.21
2023-05-21T09:14:03.481Z,979.33
2023-05-21T09:15:03.638Z,979.27
2023-05-21T09:16:03.386Z,979.33
2023-05-21T09:17:03.231Z,979.27
2023-05-21T09:18:03.741Z,979.27
2023-05-21T09:19:05.151Z,979.35
2023-05-21T09:20:03.410Z,979.24
2023-05-21T09:22:03.718Z,979.23
2023-05-21T09:23:03.403Z,979.32
2023-05-21T09:24:02.912Z,979.35
2023-05-21T09:25:03.573Z,979.43
2023-05-21T09:26:03.292Z,979.31
2023-05-21T09:27:03.839Z,979.40
2023-05-21T09:29:03.537Z,979.25
2023-05-21T09:30:03.247Z,979.31
2023-05-21T09:31:03.891Z,979.36
2023-05-21T09:32:03.538Z,979.33
2023-05-21T09:33:03.432Z,979.36
2023-05-21T09:34:03.332Z,979.30
2023-05-21T09:35:03.823Z,979.18
2023-05-21T09:37:10.870Z,979.23
2023-05-21T09:38:03.494Z,979.17
2023-05-21T09:39:03.139Z,979.31
2023-05-21T09:40:03.187Z,979.31
2023-05-21T09:41:03.682Z,979.28
2023-05-21T09:42:03.646Z,979.25
2023-05-21T09:43:03.696Z,979.19
2023-05-21T09:44:03.298Z,979.13
2023-05-21T09:45:03.759Z,979.22
2023-05-21T09:47:03.592Z,979.16
2023-05-21T09:49:03.262Z,979.33
2023-05-21T09:50:03.903Z,979.39
2023-05-21T09:52:03.750Z,979.13
2023-05-21T09:53:03.492Z,979.21
2023-05-21T09:54:03.164Z,979.30
2023-05-21T09:55:03.328Z,979.24
2023-05-21T09:56:03.898Z,979.36
2023-05-21T09:57:03.793Z,979.33
2023-05-21T09:58:03.387Z,979.33
2023-05-21T10:00:02.981Z,979.29
2023-05-21T10:01:03.162Z,979.35
2023-05-21T10:02:03.742Z,979.35
2023-05-21T10:03:03.558Z,979.35
2023-05-21T10:04:03.518Z,979.23
2023-05-21T10:05:02.982Z,979.23
2023-05-21T10:06:03.524Z,979.35
2023-05-21T10:07:03.247Z,979.31
2023-05-21T10:08:03.292Z,979.28
2023-05-21T10:09:06.114Z,979.46
2023-05-21T10:10:03.315Z,979.34
2023-05-21T10:11:04.002Z,979.39
2023-05-21T10:13:03.552Z,979.39
2023-05-21T10:14:03.761Z,979.42
2023-05-21T10:15:03.442Z,979.24
2023-05-21T10:16:03.243Z,979.36
2023-05-21T10:17:03.194Z,979.41
2023-05-21T10:18:04.064Z,979.29
2023-05-21T10:19:03.779Z,979.29
2023-05-21T10:20:03.892Z,979.23
2023-05-21T10:21:03.369Z,979.40
2023-05-21T10:22:03.256Z,979.31
2023-05-21T10:23:03.922Z,979.40
2023-05-21T10:24:03.739Z,979.37
2023-05-21T10:25:03.206Z,979.40
2023-05-21T10:26:03.237Z,979.34
2023-05-21T10:27:03.168Z,979.34
2023-05-21T10:28:03.844Z,979.39
2023-05-21T10:29:03.544Z,979.27
2023-05-21T10:30:03.174Z,979.27
2023-05-21T10:31:03.776Z,979.24
2023-05-21T10:33:03.615Z,979.35
2023-05-21T10:34:03.313Z,979.26
2023-05-21T10:35:03.550Z,979.23
2023-05-21T10:36:03.198Z,979.32
2023-05-21T10:37:03.338Z,979.23
2023-05-21T10:38:03.917Z,979.37
2023-05-21T10:40:03.609Z,979.55
2023-05-21T10:41:03.744Z,979.52
2023-05-21T10:43:03.625Z,979.55
2023-05-21T10:44:03.102Z,979.75
2023-05-21T10:45:03.748Z,979.75
2023-05-21T10:46:03.749Z,979.75
2023-05-21T10:47:03.406Z,979.78
2023-05-21T10:49:03.159Z,979.89
2023-05-21T10:50:03.841Z,979.84
2023-05-21T10:52:04.178Z,979.95
2023-05-21T10:54:03.668Z,979.98
2023-05-21T10:55:03.104Z,979.89
2023-05-21T10:56:03.826Z,979.97
2023-05-21T10:58:03.485Z,979.97
2023-05-21T10:59:02.986Z,980.00
2023-05-21T11:00:03.756Z,979.94
2023-05-21T11:01:03.702Z,980.00
2023-05-21T11:02:03.450Z,980.18
2023-05-21T11:03:03.887Z,980.12
2023-05-21T11:04:03.376Z,979.97
2023-05-21T11:06:03.641Z,980.09
2023-05-21T11:08:03.734Z,980.29
2023-05-21T11:09:03.664Z,980.12
2023-05-21T11:10:03.797Z,980.23
2023-05-21T11:11:03.314Z,980.09
2023-05-21T11:12:03.046Z,980.03
2023-05-21T11:13:02.959Z,980.12
2023-05-21T11:14:03.650Z,980.29
2023-05-21T11:15:03.481Z,980.26
2023-05-21T11:16:03.411Z,980.06
2023-05-21T11:17:03.300Z,980.23
2023-05-21T11:18:03.246Z,980.23
2023-05-21T11:19:04.027Z,980.09
2023-05-21T11:20:03.580Z,980.12
2023-05-21T11:21:03.843Z,980.25
2023-05-21T11:23:02.982Z,980.17
2023-05-21T11:24:03.694Z,980.11
2023-05-21T11:25:03.433Z,980.17
2023-05-21T11:26:03.889Z,980.11
2023-05-21T11:28:03.525Z,980.07
2023-05-21T11:30:03.099Z,980.07
2023-05-21T11:31:03.773Z,980.21
2023-05-21T11:32:03.478Z,980.07
2023-05-21T11:33:03.200Z,980.16
2023-05-21T11:34:03.731Z,980.29
2023-05-21T11:36:02.920Z,980.32
2023-05-21T11:37:02.923Z,980.38
2023-05-21T11:38:03.663Z,980.41
2023-05-21T11:40:03.911Z,980.53
2023-05-21T11:42:05.111Z,980.32
2023-05-21T11:43:03.542Z,980.32
2023-05-21T11:45:03.742Z,980.40
2023-05-21T11:46:03.510Z,980.28
2023-05-21T11:47:03.240Z,980.25
2023-05-21T11:48:03.952Z,980.37
2023-05-21T11:49:03.730Z,980.17
2023-05-21T11:50:03.354Z,980.31
2023-05-21T11:51:03.255Z,980.25
2023-05-21T11:52:03.845Z,980.28
2023-05-21T11:54:03.520Z,980.28
2023-05-21T11:55:03.210Z,980.37
2023-05-21T11:56:03.783Z,980.37
2023-05-21T11:57:03.783Z,980.37
2023-05-21T11:58:03.548Z,980.38
2023-05-21T11:59:03.275Z,980.44
2023-05-21T12:00:03.956Z,980.44
2023-05-21T12:02:03.236Z,980.38
2023-05-21T12:03:04.025Z,980.53
2023-05-21T12:05:03.127Z,980.45
2023-05-21T12:06:03.859Z,980.54
2023-05-21T12:08:03.724Z,980.39
2023-05-21T12:10:03.010Z,980.57
2023-05-21T12:11:03.502Z,980.48
2023-05-21T12:12:03.595Z,980.34
2023-05-21T12:13:03.501Z,980.48
2023-05-21T12:14:03.740Z,980.30
2023-05-21T12:15:03.262Z,980.45
2023-05-21T12:16:07.198Z,980.45
2023-05-21T12:18:03.508Z,980.39
2023-05-21T12:19:03.783Z,980.16
2023-05-21T12:20:03.346Z,980.33
2023-05-21T12:21:03.904Z,980.45
2023-05-21T12:23:03.205Z,980.30
2023-05-21T12:24:03.752Z,980.33
2023-05-21T12:25:03.828Z,980.30
2023-05-21T12:26:03.914Z,980.27
2023-05-21T12:28:03.524Z,980.33
2023-05-21T12:29:03.614Z,980.41
2023-05-21T12:30:03.196Z,980.44
2023-05-21T12:31:03.727Z,980.33
2023-05-21T12:33:03.281Z,980.26
2023-05-21T12:34:03.074Z,980.41
2023-05-21T12:35:03.206Z,980.32
2023-05-21T12:36:03.240Z,980.35
2023-05-21T12:37:03.844Z,980.47
2023-05-21T12:38:03.919Z,980.47
2023-05-21T12:39:03.467Z,980.44
2023-05-21T12:40:03.612Z,980.29
2023-05-21T12:42:03.715Z,980.41
2023-05-21T12:43:03.443Z,980.35
2023-05-21T12:44:03.417Z,980.47
2023-05-21T12:45:03.447Z,980.44
2023-05-21T12:46:03.666Z,980.53
2023-05-21T12:47:03.879Z,980.44
2023-05-21T12:48:04.023Z,980.35
2023-05-21T12:49:03.709Z,980.47
2023-05-21T12:51:03.349Z,980.36
2023-05-21T12:52:03.430Z,980.39
2023-05-21T12:53:03.170Z,980.39
2023-05-21T12:54:03.710Z,980.33
2023-05-21T12:56:02.997Z,980.30
2023-05-21T12:57:03.021Z,980.45
2023-05-21T12:58:03.636Z,980.33
2023-05-21T12:59:03.316Z,980.48
2023-05-21T13:00:03.331Z,980.33
2023-05-21T13:02:03.995Z,980.37
2023-05-21T13:03:03.780Z,980.42
2023-05-21T13:04:03.734Z,980.39
2023-05-21T13:05:03.267Z,980.34
2023-05-21T13:06:03.860Z,980.45
2023-05-21T13:07:05.292Z,980.43
2023-05-21T13:08:03.248Z,980.48
2023-05-21T13:09:04.030Z,980.31
2023-05-21T13:11:03.765Z,980.25
2023-05-21T13:13:03.617Z,980.22
2023-05-21T13:14:03.409Z,980.25
2023-05-21T13:15:03.836Z,980.25
2023-05-21T13:17:03.129Z,980.14
2023-05-21T13:18:03.093Z,980.28
2023-05-21T13:19:04.484Z,980.28
2023-05-21T13:20:03.560Z,980.25
2023-05-21T13:22:03.847Z,980.22
2023-05-21T13:23:07.246Z,980.25
2023-05-21T13:24:03.329Z,980.25
2023-05-21T13:25:03.348Z,980.40
2023-05-21T13:26:02.967Z,980.28
2023-05-21T13:27:03.022Z,980.14
2023-05-21T13:28:03.719Z,980.25
2023-05-21T13:29:03.484Z,980.11
2023-05-21T13:30:03.370Z,980.22
2023-05-21T13:31:03.015Z,980.31
2023-05-21T13:32:03.599Z,980.23
2023-05-21T13:33:03.677Z,980.06
2023-05-21T13:34:05.928Z,980.12
2023-05-21T13:36:03.775Z,980.15
2023-05-21T13:38:03.359Z,980.18
2023-05-21T13:39:03.035Z,980.18
2023-05-21T13:40:03.661Z,980.18
2023-05-21T13:41:03.720Z,980.09
2023-05-21T13:43:03.513Z,980.18
2023-05-21T13:44:03.476Z,980.09
2023-05-21T13:45:03.053Z,980.18
2023-05-21T13:46:03.143Z,980.06
2023-05-21T13:47:03.753Z,980.06
2023-05-21T13:48:03.854Z,980.00
2023-05-21T13:49:03.936Z,980.03
2023-05-21T13:50:03.583Z,979.97
2023-05-21T13:51:03.137Z,979.97
2023-05-21T13:52:03.823Z,980.18
2023-05-21T13:53:03.801Z,980.06
2023-05-21T13:54:03.357Z,980.06
2023-05-21T13:55:03.825Z,979.94
2023-05-21T13:57:02.986Z,980.06
2023-05-21T13:58:03.614Z,980.03
2023-05-21T14:00:03.889Z,979.94
2023-05-21T14:02:03.847Z,979.94
2023-05-21T14:03:03.824Z,980.06
2023-05-21T14:04:03.340Z,979.94
2023-05-21T14:05:03.838Z,979.97
2023-05-21T14:06:03.567Z,979.83
2023-05-21T14:07:03.948Z,979.88
2023-05-21T14:08:03.824Z,979.83
2023-05-21T14:09:03.420Z,979.77
2023-05-21T14:10:03.504Z,979.71
2023-05-21T14:11:05.254Z,979.74
2023-05-21T14:12:06.745Z,979.65
2023-05-21T14:13:19.865Z,979.77
2023-05-21T14:14:03.050Z,979.62
2023-05-21T14:15:03.110Z,979.74
2023-05-21T14:16:03.205Z,979.59
2023-05-21T14:17:03.749Z,979.71
2023-05-21T14:18:03.537Z,979.74
2023-05-21T14:19:03.224Z,979.62
2023-05-21T14:20:03.394Z,979.62
2023-05-21T14:21:03.022Z,979.62
2023-05-21T14:22:03.090Z,979.62
2023-05-21T14:23:03.690Z,979.62
2023-05-21T14:25:03.918Z,979.51
2023-05-21T14:26:03.462Z,979.54
2023-05-21T14:27:03.230Z,979.48
2023-05-21T14:28:03.813Z,979.48
2023-05-21T14:30:03.137Z,979.42
2023-05-21T14:31:03.718Z,979.53
2023-05-21T14:32:03.464Z,979.39
2023-05-21T14:33:03.184Z,979.47
2023-05-21T14:34:03.694Z,979.30